createdAt,value
2022-08-30T00:02:23.483Z,99.90
2022-08-30T00:04:54.340Z,99.90
2022-08-30T00:07:25.690Z,99.90
2022-08-30T00:09:53.403Z,99.90
2022-08-30T00:12:21.354Z,99.90
2022-08-30T00:14:48.833Z,99.90
2022-08-30T00:17:17.415Z,99.90
2022-08-30T00:19:44.373Z,99.90
2022-08-30T00:22:12.668Z,99.90
2022-08-30T00:24:41.543Z,99.90
2022-08-30T00:27:09.453Z,99.90
2022-08-30T00:29:36.612Z,99.90
2022-08-30T00:32:05.552Z,99.90
2022-08-30T00:34:34.401Z,99.90
2022-08-30T00:37:02.798Z,99.90
2022-08-30T00:39:30.750Z,99.90
2022-08-30T00:41:58.476Z,99.90
2022-08-30T00:44:26.845Z,99.90
2022-08-30T00:46:54.454Z,99.90
2022-08-30T00:49:23.101Z,99.90
2022-08-30T00:51:50.703Z,99.90
2022-08-30T00:54:19.640Z,99.90
2022-08-30T00:56:48.942Z,99.90
2022-08-30T00:59:17.911Z,99.90
2022-08-30T01:01:46.386Z,99.90
2022-08-30T01:04:15.382Z,99.90
2022-08-30T01:06:42.529Z,99.90
2022-08-30T01:09:13.833Z,99.90
2022-08-30T01:11:43.515Z,99.90
2022-08-30T01:14:11.701Z,99.90
2022-08-30T01:16:42.919Z,99.90
2022-08-30T01:19:50.468Z,99.90
2022-08-30T01:22:42.652Z,99.90
2022-08-30T01:25:14.866Z,99.90
2022-08-30T01:27:47.785Z,99.90
2022-08-30T01:30:16.545Z,99.90
2022-08-30T01:32:46.962Z,99.90
2022-08-30T01:35:18.605Z,99.90
2022-08-30T01:37:47.297Z,99.90
2022-08-30T01:40:16.316Z,99.90
2022-08-30T01:42:44.527Z,99.90
2022-08-30T01:45:13.368Z,99.90
2022-08-30T01:47:42.425Z,99.90
2022-08-30T01:50:10.809Z,99.90
2022-08-30T01:52:40.334Z,99.90
2022-08-30T01:55:10.881Z,99.90
2022-08-30T01:57:40.255Z,99.90
2022-08-30T02:00:09.608Z,99.90
2022-08-30T02:02:40.434Z,99.90
2022-08-30T02:05:08.799Z,99.90
2022-08-30T02:07:36.770Z,99.90
2022-08-30T02:10:05.720Z,99.90
2022-08-30T02:12:34.934Z,99.90
2022-08-30T02:15:08.843Z,99.90
2022-08-30T02:17:37.280Z,99.90
2022-08-30T02:20:06.447Z,99.90
2022-08-30T02:22:34.668Z,99.90
2022-08-30T02:25:03.182Z,99.90
2022-08-30T02:27:31.598Z,99.90
2022-08-30T02:29:59.489Z,99.90
2022-08-30T02:32:27.595Z,99.90
2022-08-30T02:34:55.623Z,99.90
2022-08-30T02:37:22.555Z,99.90
2022-08-30T02:39:50.832Z,99.90
2022-08-30T02:42:21.318Z,99.90
2022-08-30T02:44:48.583Z,99.90
2022-08-30T02:47:16.908Z,99.90
2022-08-30T02:49:45.138Z,99.90
2022-08-30T02:52:13.325Z,99.90
2022-08-30T02:54:40.528Z,99.90
2022-08-30T02:57:08.894Z,99.90
2022-08-30T02:59:48.045Z,99.90
2022-08-30T03:02:16.708Z,99.90
2022-08-30T03:04:46.490Z,99.90
2022-08-30T03:07:14.630Z,99.90
2022-08-30T03:09:42.829Z,99.90
2022-08-30T03:12:10.947Z,99.90
2022-08-30T03:14:39.433Z,99.90
2022-08-30T03:17:11.268Z,99.90
2022-08-30T03:19:44.868Z,99.90
2022-08-30T03:22:12.961Z,99.90
2022-08-30T03:24:41.180Z,99.90
2022-08-30T03:27:08.585Z,99.90
2022-08-30T03:29:36.791Z,99.90
2022-08-30T03:32:05.962Z,99.90
2022-08-30T03:34:34.231Z,99.90
2022-08-30T03:37:02.862Z,99.90
2022-08-30T03:39:32.879Z,99.90
2022-08-30T03:42:01.042Z,99.90
2022-08-30T03:44:31.353Z,99.90
2022-08-30T03:46:58.631Z,99.90
2022-08-30T03:49:28.360Z,99.90
2022-08-30T03:51:55.638Z,99.90
2022-08-30T03:54:24.856Z,99.90
2022-08-30T03:56:52.693Z,99.90
2022-08-30T03:59:22.984Z,99.90
2022-08-30T04:01:50.634Z,99.90
2022-08-30T04:04:21.127Z,99.90
2022-08-30T04:06:49.283Z,99.90
2022-08-30T04:09:17.009Z,99.90
2022-08-30T04:11:45.047Z,99.90
2022-08-30T04:14:15.138Z,99.90
2022-08-30T04:16:43.990Z,99.90
2022-08-30T04:19:12.674Z,99.90
2022-08-30T04:21:42.795Z,99.90
2022-08-30T04:24:12.355Z,99.90
2022-08-30T04:26:40.371Z,99.90
2022-08-30T04:29:07.796Z,99.90
2022-08-30T04:31:35.940Z,99.90
2022-08-30T04:34:04.966Z,99.90
2022-08-30T04:36:32.598Z,99.90
2022-08-30T04:39:00.645Z,99.90
2022-08-30T04:41:27.661Z,99.90
2022-08-30T04:43:55.869Z,99.90
2022-08-30T04:46:23.662Z,99.90
2022-08-30T04:48:51.743Z,99.90
2022-08-30T04:51:18.927Z,99.90
2022-08-30T04:53:47.611Z,99.90
2022-08-30T04:56:18.842Z,99.90
2022-08-30T04:58:50.084Z,99.90
2022-08-30T05:01:21.333Z,99.90
2022-08-30T05:03:53.654Z,99.90
2022-08-30T05:06:22.193Z,99.90
2022-08-30T05:08:52.808Z,99.90
2022-08-30T05:11:21.364Z,99.90
2022-08-30T05:13:50.194Z,99.90
2022-08-30T05:16:19.393Z,99.90
2022-08-30T05:18:52.169Z,99.90
2022-08-30T05:21:23.719Z,99.90
2022-08-30T05:23:54.339Z,99.90
2022-08-30T05:26:26.452Z,99.90
2022-08-30T05:28:54.106Z,99.90
2022-08-30T05:31:25.967Z,99.90
2022-08-30T05:33:54.841Z,99.90
2022-08-30T05:36:30.402Z,99.90
2022-08-30T05:38:58.057Z,99.90
2022-08-30T05:41:28.548Z,99.90
2022-08-30T05:43:59.243Z,99.90
2022-08-30T05:49:04.519Z,99.90
2022-08-30T05:51:35.331Z,99.90
2022-08-30T05:54:02.648Z,99.90
2022-08-30T05:56:35.735Z,99.90
2022-08-30T05:59:06.203Z,99.90
2022-08-30T06:01:43.935Z,99.90
2022-08-30T06:04:13.623Z,99.90
2022-08-30T06:06:44.239Z,99.90
2022-08-30T06:09:13.116Z,99.90
2022-08-30T06:11:42.193Z,99.90
2022-08-30T06:14:09.828Z,99.90
2022-08-30T06:16:38.861Z,99.90
2022-08-30T06:19:08.530Z,99.90
2022-08-30T06:21:37.313Z,99.90
2022-08-30T06:24:10.714Z,99.90
2022-08-30T06:26:43.539Z,99.90
2022-08-30T06:29:13.073Z,99.90
2022-08-30T06:31:41.267Z,99.90
2022-08-30T06:34:09.238Z,99.90
2022-08-30T06:36:36.870Z,99.90
2022-08-30T06:39:04.493Z,99.90
2022-08-30T06:41:34.890Z,99.90
2022-08-30T06:44:05.985Z,99.90
2022-08-30T06:46:37.482Z,99.90
2022-08-30T06:49:06.013Z,99.90
2022-08-30T06:51:37.697Z,99.90
2022-08-30T06:54:10.759Z,99.90
2022-08-30T06:56:48.709Z,99.90
2022-08-30T06:59:22.709Z,99.90
2022-08-30T07:01:51.194Z,99.90
2022-08-30T07:04:19.182Z,99.90
2022-08-30T07:06:47.097Z,99.90
2022-08-30T07:09:14.694Z,99.90
2022-08-30T07:11:42.687Z,99.90
2022-08-30T07:14:10.937Z,99.90
2022-08-30T07:16:38.701Z,99.90
2022-08-30T07:19:06.890Z,99.90
2022-08-30T07:21:43.966Z,99.90
2022-08-30T07:24:12.991Z,99.90
2022-08-30T07:26:44.099Z,99.90
2022-08-30T07:29:11.779Z,99.90
2022-08-30T07:31:40.106Z,99.90
2022-08-30T07:34:08.754Z,99.90
2022-08-30T07:36:38.257Z,99.90
2022-08-30T07:39:07.855Z,99.90
2022-08-30T07:41:38.766Z,99.90
2022-08-30T07:44:08.263Z,99.90
2022-08-30T07:46:36.943Z,99.90
2022-08-30T07:49:05.970Z,99.90
2022-08-30T07:51:39.928Z,99.90
2022-08-30T07:54:08.371Z,99.90
2022-08-30T07:56:36.606Z,99.90
2022-08-30T07:59:04.240Z,99.90
2022-08-30T08:01:32.751Z,99.90
2022-08-30T08:03:59.782Z,99.90
2022-08-30T08:06:29.768Z,99.90
2022-08-30T08:09:03.965Z,99.90
2022-08-30T08:11:34.086Z,99.90
2022-08-30T08:14:04.604Z,99.90
2022-08-30T08:16:34.943Z,99.90
2022-08-30T08:19:04.580Z,99.90
2022-08-30T08:21:32.381Z,99.90
2022-08-30T08:23:59.749Z,99.90
2022-08-30T08:26:27.985Z,99.90
2022-08-30T08:28:55.714Z,99.90
2022-08-30T08:31:27.218Z,99.90
2022-08-30T08:34:04.209Z,99.90
2022-08-30T08:36:33.446Z,99.90
2022-08-30T08:39:02.331Z,99.90
2022-08-30T08:41:44.737Z,99.90
2022-08-30T08:44:51.105Z,99.90
2022-08-30T08:47:28.795Z,99.90
2022-08-30T08:50:03.131Z,99.90
2022-08-30T08:53:24.886Z,99.90
2022-08-30T08:55:58.002Z,99.90
2022-08-30T08:58:28.933Z,99.90
2022-08-30T09:00:58.999Z,99.90
2022-08-30T09:03:28.943Z,99.90
2022-08-30T09:05:57.480Z,99.90
2022-08-30T09:08:25.752Z,99.90
2022-08-30T09:10:56.873Z,99.90
2022-08-30T09:13:25.711Z,99.90
2022-08-30T09:15:57.047Z,99.90
2022-08-30T09:18:50.209Z,99.90
2022-08-30T09:21:25.636Z,99.90
2022-08-30T09:24:05.297Z,99.90
2022-08-30T09:26:35.839Z,99.90
2022-08-30T09:29:05.830Z,99.90
2022-08-30T09:32:10.234Z,99.90
2022-08-30T09:34:43.914Z,99.90
2022-08-30T09:37:31.764Z,99.90
2022-08-30T09:40:00.326Z,99.90
2022-08-30T09:42:30.045Z,99.90
2022-08-30T09:45:10.520Z,99.90
2022-08-30T09:47:42.820Z,99.90
2022-08-30T09:50:34.681Z,99.90
2022-08-30T09:53:23.784Z,99.90
2022-08-30T09:56:33.712Z,99.90
2022-08-30T09:59:26.241Z,99.90
2022-08-30T10:02:01.889Z,99.90
2022-08-30T10:04:45.567Z,99.90
2022-08-30T10:07:49.313Z,99.90
2022-08-30T10:10:45.265Z,99.90
2022-08-30T10:13:34.889Z,99.90
2022-08-30T10:16:38.394Z,99.90
2022-08-30T10:19:23.034Z,99.90
2022-08-30T10:22:21.548Z,99.90
2022-08-30T10:25:21.332Z,99.90
2022-08-30T10:28:10.327Z,99.90
2022-08-30T10:30:44.037Z,99.90
2022-08-30T10:33:21.334Z,99.90
2022-08-30T10:36:00.183Z,99.90
2022-08-30T10:38:35.379Z,99.90
2022-08-30T10:41:38.446Z,99.90
2022-08-30T10:44:23.766Z,99.90
2022-08-30T10:47:12.095Z,99.90
2022-08-30T10:49:49.489Z,99.90
2022-08-30T10:52:33.859Z,99.90
2022-08-30T10:55:29.102Z,99.90
2022-08-30T10:58:05.711Z,99.90
2022-08-30T11:01:17.415Z,99.90
2022-08-30T11:04:07.413Z,99.90
2022-08-30T11:07:02.601Z,99.90
2022-08-30T11:09:49.146Z,99.90
2022-08-30T11:12:22.922Z,99.90
2022-08-30T11:14:53.529Z,99.90
2022-08-30T11:17:37.072Z,99.90
2022-08-30T11:20:21.200Z,99.90
2022-08-30T11:23:21.973Z,99.90
2022-08-30T11:26:12.174Z,99.90
2022-08-30T11:28:47.837Z,99.90
2022-08-30T11:31:20.602Z,99.90
2022-08-30T11:33:59.407Z,99.90
2022-08-30T11:36:38.770Z,99.90
2022-08-30T11:39:53.197Z,99.90
2022-08-30T11:42:29.819Z,99.90
2022-08-30T11:45:26.759Z,99.90
2022-08-30T11:48:04.382Z,99.90
2022-08-30T11:51:02.437Z,99.90
2022-08-30T11:53:52.831Z,99.90
2022-08-30T11:56:40.675Z,99.90
2022-08-30T11:59:45.136Z,99.90
2022-08-30T12:02:39.768Z,99.90
2022-08-30T12:05:08.955Z,99.90
2022-08-30T12:07:56.463Z,99.90
2022-08-30T12:10:40.998Z,99.90
2022-08-30T12:13:09.102Z,99.90
2022-08-30T12:15:57.863Z,99.90
2022-08-30T12:18:48.977Z,99.90
2022-08-30T12:21:22.663Z,99.90
2022-08-30T12:24:13.747Z,99.90
2022-08-30T12:26:44.227Z,99.90
2022-08-30T12:29:18.520Z,99.90
2022-08-30T12:32:05.375Z,99.90
2022-08-30T12:34:36.898Z,99.90
2022-08-30T12:37:10.709Z,99.80
2022-08-30T12:39:44.178Z,99.60
2022-08-30T12:42:17.672Z,99.90
2022-08-30T12:44:48.309Z,99.90
2022-08-30T12:47:25.588Z,99.90
2022-08-30T12:49:54.774Z,99.90
2022-08-30T12:52:31.292Z,99.90
2022-08-30T12:55:21.832Z,99.90
2022-08-30T12:58:00.849Z,99.90
2022-08-30T13:00:35.665Z,98.80
2022-08-30T13:03:30.193Z,99.60
2022-08-30T13:05:59.147Z,98.50
2022-08-30T13:08:29.308Z,97.50
2022-08-30T13:11:10.743Z,98.90
2022-08-30T13:13:52.062Z,98.00
2022-08-30T13:16:26.641Z,98.00
2022-08-30T13:19:26.311Z,97.10
2022-08-30T13:21:56.601Z,98.00
2022-08-30T13:24:25.810Z,98.00
2022-08-30T13:27:03.337Z,98.60
2022-08-30T13:29:31.898Z,99.00
2022-08-30T13:31:59.994Z,99.20
2022-08-30T13:34:33.011Z,98.70
2022-08-30T13:37:02.692Z,97.70
2022-08-30T13:39:30.665Z,98.10
2022-08-30T13:42:31.768Z,97.10
2022-08-30T13:44:48.034Z,97.00
2022-08-30T13:47:32.548Z,97.40
2022-08-30T13:50:00.952Z,97.20
2022-08-30T13:52:28.320Z,98.00
2022-08-30T13:54:57.426Z,97.20
2022-08-30T14:00:19.113Z,96.60
2022-08-30T14:02:54.903Z,97.20
2022-08-30T14:11:05.093Z,96.50
2022-08-30T14:13:32.024Z,96.00
2022-08-30T14:18:49.525Z,96.70
2022-08-30T14:21:18.101Z,97.00
2022-08-30T14:23:50.054Z,96.30
2022-08-30T14:26:39.394Z,95.70
2022-08-30T14:29:10.052Z,97.00
2022-08-30T14:31:40.059Z,97.40
2022-08-30T14:34:08.817Z,96.10
2022-08-30T14:36:41.201Z,96.90
2022-08-30T14:39:10.715Z,97.20
2022-08-30T14:41:45.267Z,98.00
2022-08-30T14:44:15.065Z,99.30
2022-08-30T14:46:44.081Z,99.90
2022-08-30T14:49:12.876Z,99.90
2022-08-30T14:51:41.263Z,99.90
2022-08-30T14:54:09.802Z,99.90
2022-08-30T14:56:40.002Z,99.90
2022-08-30T14:59:08.555Z,99.90
2022-08-30T15:01:38.959Z,99.90
2022-08-30T15:04:08.963Z,99.90
2022-08-30T15:06:38.189Z,99.90
2022-08-30T15:09:08.293Z,99.90
2022-08-30T15:11:37.775Z,99.90
2022-08-30T15:14:07.211Z,99.90
2022-08-30T15:16:36.474Z,99.90
2022-08-30T15:19:05.147Z,99.90
2022-08-30T15:21:34.895Z,99.90
2022-08-30T15:24:05.732Z,99.90
2022-08-30T15:26:33.145Z,99.90
2022-08-30T15:29:01.945Z,99.90
2022-08-30T15:31:31.108Z,99.90
2022-08-30T15:33:59.266Z,99.90
2022-08-30T15:36:27.783Z,99.90
2022-08-30T15:38:56.986Z,99.90
2022-08-30T15:41:24.059Z,99.90
2022-08-30T15:43:52.800Z,99.90
2022-08-30T15:46:29.590Z,99.90
2022-08-30T15:49:02.235Z,99.90
2022-08-30T15:51:41.051Z,99.90
2022-08-30T15:54:11.628Z,99.90
2022-08-30T15:56:40.446Z,99.90
2022-08-30T15:59:10.013Z,99.90
2022-08-30T16:01:38.727Z,99.90
2022-08-30T16:04:06.199Z,99.90
2022-08-30T16:06:37.385Z,99.90
2022-08-30T16:09:07.579Z,99.90
2022-08-30T16:11:36.975Z,99.90
2022-08-30T16:14:05.561Z,99.90
2022-08-30T16:16:33.933Z,99.90
2022-08-30T16:19:02.545Z,99.90
2022-08-30T16:21:33.419Z,99.90
2022-08-30T16:24:02.613Z,99.90
2022-08-30T16:26:33.467Z,99.90
2022-08-30T16:29:03.070Z,99.90
2022-08-30T16:31:31.728Z,99.90
2022-08-30T16:34:02.439Z,99.90
2022-08-30T16:36:30.760Z,99.90
2022-08-30T16:38:58.684Z,99.90
2022-08-30T16:41:28.107Z,99.90
2022-08-30T16:43:55.514Z,99.90
2022-08-30T16:46:27.754Z,99.90
2022-08-30T16:49:00.139Z,99.90
2022-08-30T16:51:30.700Z,99.90
2022-08-30T16:54:01.842Z,99.90
2022-08-30T16:56:31.930Z,99.90
2022-08-30T16:59:03.265Z,99.90
2022-08-30T17:01:37.556Z,99.90
2022-08-30T17:04:06.659Z,99.90
2022-08-30T17:06:35.735Z,99.90
2022-08-30T17:09:05.727Z,99.90
2022-08-30T17:11:34.976Z,99.90
2022-08-30T17:14:03.470Z,99.90
2022-08-30T17:16:31.642Z,99.90
2022-08-30T17:19:00.835Z,99.90
2022-08-30T17:21:29.369Z,99.90
2022-08-30T17:24:01.760Z,99.90
2022-08-30T17:26:32.104Z,99.90
2022-08-30T17:29:00.376Z,99.90
2022-08-30T17:34:22.944Z,99.90
2022-08-30T17:36:52.675Z,99.90
2022-08-30T17:39:23.410Z,99.90
2022-08-30T17:41:52.651Z,99.90
2022-08-30T17:44:25.552Z,99.90
2022-08-30T17:46:55.231Z,99.90
2022-08-30T17:49:23.264Z,99.90
2022-08-30T17:51:55.631Z,99.90
2022-08-30T17:54:26.715Z,99.90
2022-08-30T17:56:55.178Z,99.90
2022-08-30T17:59:25.131Z,99.90
2022-08-30T18:01:55.248Z,99.90
2022-08-30T18:04:24.925Z,99.90
2022-08-30T18:06:52.682Z,99.90
2022-08-30T18:09:20.956Z,99.90
2022-08-30T18:11:49.365Z,99.90
2022-08-30T18:14:18.052Z,99.90
2022-08-30T18:16:50.043Z,99.90
2022-08-30T18:19:23.713Z,99.90
2022-08-30T18:21:52.614Z,99.90
2022-08-30T18:24:20.742Z,99.90
2022-08-30T18:26:49.452Z,99.90
2022-08-30T18:29:26.375Z,99.90
2022-08-30T18:31:58.943Z,99.90
2022-08-30T18:34:27.988Z,99.90
2022-08-30T18:36:55.736Z,99.90
2022-08-30T18:39:23.914Z,99.90
2022-08-30T18:41:54.259Z,99.90
2022-08-30T18:44:28.405Z,99.90
2022-08-30T18:46:57.441Z,99.90
2022-08-30T18:49:26.731Z,99.90
2022-08-30T18:51:55.351Z,99.90
2022-08-30T18:54:23.956Z,99.90
2022-08-30T18:56:51.801Z,99.90
2022-08-30T18:59:20.087Z,99.90
2022-08-30T19:01:49.148Z,99.90
2022-08-30T19:04:22.493Z,99.90
2022-08-30T19:06:57.318Z,99.90
2022-08-30T19:09:26.617Z,99.90
2022-08-30T19:11:54.363Z,99.90
2022-08-30T19:14:22.799Z,99.90
2022-08-30T19:16:50.921Z,99.90
2022-08-30T19:19:18.718Z,99.90
2022-08-30T19:21:46.998Z,99.90
2022-08-30T19:24:16.130Z,99.90
2022-08-30T19:26:46.841Z,99.90
2022-08-30T19:29:16.746Z,99.90
2022-08-30T19:31:46.494Z,99.90
2022-08-30T19:34:14.791Z,99.90
2022-08-30T19:36:42.348Z,99.90
2022-08-30T19:39:13.988Z,99.90
2022-08-30T19:41:42.273Z,99.90
2022-08-30T19:44:10.398Z,99.90
2022-08-30T19:46:37.373Z,99.90
2022-08-30T19:49:08.541Z,99.90
2022-08-30T19:51:37.482Z,99.90
2022-08-30T19:54:06.126Z,99.90
2022-08-30T19:56:35.647Z,99.90
2022-08-30T19:59:04.325Z,99.90
2022-08-30T20:01:34.092Z,99.90
2022-08-30T20:04:02.790Z,99.90
2022-08-30T20:06:32.676Z,99.90
2022-08-30T20:09:00.846Z,99.90
2022-08-30T20:11:28.886Z,99.90
2022-08-30T20:13:58.125Z,99.90
2022-08-30T20:16:30.995Z,99.90
2022-08-30T20:19:09.322Z,99.90
2022-08-30T20:21:36.750Z,99.90
2022-08-30T20:24:05.433Z,99.90
2022-08-30T20:24:23.739Z,99.90
2022-08-30T20:26:38.273Z,99.90
2022-08-30T20:29:07.603Z,99.90
2022-08-30T20:31:36.279Z,99.90
2022-08-30T20:34:04.784Z,99.90
2022-08-30T20:36:33.738Z,99.90
2022-08-30T20:39:02.235Z,99.90
2022-08-30T20:41:30.739Z,99.90
2022-08-30T20:44:00.036Z,99.90
2022-08-30T20:46:34.068Z,99.90
2022-08-30T20:49:03.394Z,99.90
2022-08-30T20:51:31.597Z,99.90
2022-08-30T20:54:02.530Z,99.90
2022-08-30T20:56:31.711Z,99.90
2022-08-30T20:59:02.059Z,99.90
2022-08-30T21:01:37.999Z,99.90
2022-08-30T21:04:06.371Z,99.90
2022-08-30T21:06:37.480Z,99.90
2022-08-30T21:09:06.124Z,99.90
2022-08-30T21:11:35.871Z,99.90
2022-08-30T21:14:04.963Z,99.90
2022-08-30T21:16:34.523Z,99.90
2022-08-30T21:19:02.627Z,99.90
2022-08-30T21:21:32.212Z,99.90
2022-08-30T21:24:06.565Z,99.90
2022-08-30T21:26:34.495Z,99.90
2022-08-30T21:29:02.508Z,99.90
2022-08-30T21:31:30.631Z,99.90
2022-08-30T21:33:58.873Z,99.90
2022-08-30T21:36:46.329Z,99.90
2022-08-30T21:39:17.979Z,99.90
2022-08-30T21:41:48.684Z,99.90
2022-08-30T21:44:19.625Z,99.90
2022-08-30T21:46:49.555Z,99.90
2022-08-30T21:49:20.396Z,99.90
2022-08-30T21:51:50.788Z,99.90
2022-08-30T21:54:19.410Z,99.90
2022-08-30T21:56:51.001Z,99.90
2022-08-30T21:59:19.562Z,99.90
2022-08-30T22:01:49.057Z,99.90
2022-08-30T22:04:16.770Z,99.90
2022-08-30T22:06:50.230Z,99.90
2022-08-30T22:09:21.586Z,99.90
2022-08-30T22:11:50.987Z,99.90
2022-08-30T22:14:20.593Z,99.90
2022-08-30T22:16:48.891Z,99.90
2022-08-30T22:19:22.425Z,99.90
2022-08-30T22:21:50.980Z,99.90
2022-08-30T22:24:19.624Z,99.90
2022-08-30T22:26:47.659Z,99.90
2022-08-30T22:29:15.530Z,99.90
2022-08-30T22:31:43.604Z,99.90
2022-08-30T22:34:11.568Z,99.90
2022-08-30T22:36:38.860Z,99.90
2022-08-30T22:39:08.516Z,99.90
2022-08-30T22:41:36.608Z,99.90
2022-08-30T22:44:06.390Z,99.90
2022-08-30T22:46:36.652Z,99.90
2022-08-30T22:49:08.687Z,99.90
2022-08-30T22:51:38.349Z,99.90
2022-08-30T22:54:07.325Z,99.90
2022-08-30T22:56:36.530Z,99.90
2022-08-30T22:59:05.278Z,99.90
2022-08-30T23:01:39.578Z,99.90
2022-08-30T23:04:08.850Z,99.90
2022-08-30T23:06:36.526Z,99.90
2022-08-30T23:09:06.092Z,99.90
2022-08-30T23:11:33.942Z,99.90
2022-08-30T23:14:03.334Z,99.90
2022-08-30T23:16:30.580Z,99.90
2022-08-30T23:18:57.648Z,99.90
2022-08-30T23:21:28.655Z,99.90
2022-08-30T23:24:16.492Z,99.90
2022-08-30T23:27:03.843Z,99.90
2022-08-30T23:29:49.731Z,99.90
2022-08-30T23:32:35.006Z,99.90
2022-08-30T23:35:25.360Z,99.90
2022-08-30T23:38:15.869Z,99.90
2022-08-30T23:41:01.881Z,99.90
2022-08-30T23:43:47.232Z,99.90
2022-08-30T23:46:33.605Z,99.90
2022-08-30T23:49:18.895Z,99.90
2022-08-30T23:52:04.241Z,99.90
2022-08-30T23:54:49.699Z,99.90
2022-08-30T23:57:36.079Z,99.90
